Time;durP1;ratioP1;P1;durP2;ratioP2;P2;SDS_P1;SDS_P2;PMS_P1;PMS_P2;Temp;Humidity;BMP_temperature;BMP_pressure;BME280_temperature;BME280_humidity;BME280_pressure;Samples;Min_cycle;Max_cycle;Signal;HPM_P1;HPM_P2
2023/09/23 00:02:09;;;;;;;0.80;0.80;;;;;;;11.45;100.00;99509.91;5047400;28;20236;-66
2023/09/23 00:04:34;;;;;;;1.57;0.77;;;;;;;11.47;100.00;99508.03;5035368;28;20184;-69
2023/09/23 00:06:59;;;;;;;0.50;0.50;;;;;;;11.45;100.00;99512.47;5030631;28;20596;-68
2023/09/23 00:09:25;;;;;;;2.50;0.80;;;;;;;11.46;100.00;99507.22;5039865;28;20214;-68
2023/09/23 00:11:50;;;;;;;1.53;0.80;;;;;;;11.33;100.00;99515.88;5029432;28;20299;-67
2023/09/23 00:14:15;;;;;;;1.67;0.80;;;;;;;11.27;100.00;99519.66;5052630;28;20177;-67
2023/09/23 00:16:42;;;;;;;0.60;0.50;;;;;;;11.31;100.00;99521.09;5050505;28;20195;-65
2023/09/23 00:19:08;;;;;;;0.60;0.60;;;;;;;11.22;100.00;99526.88;5048579;28;20173;-65
2023/09/23 00:21:34;;;;;;;1.23;0.70;;;;;;;11.28;100.00;99534.19;5029636;28;20720;-65
2023/09/23 00:24:01;;;;;;;0.63;0.60;;;;;;;11.25;100.00;99530.06;5041532;28;20181;-66
2023/09/23 00:26:27;;;;;;;0.70;0.70;;;;;;;11.19;100.00;99535.63;5041180;28;20178;-65
2023/09/23 00:28:52;;;;;;;0.70;0.70;;;;;;;11.16;100.00;99538.38;5044952;28;20194;-66
2023/09/23 00:31:18;;;;;;;0.73;0.63;;;;;;;11.14;100.00;99540.25;5052891;28;20228;-66
2023/09/23 00:33:44;;;;;;;0.63;0.63;;;;;;;11.21;100.00;99538.09;5058414;28;20563;-67
2023/09/23 00:36:10;;;;;;;0.60;0.60;;;;;;;11.18;100.00;99536.56;5042548;28;20177;-66
2023/09/23 00:38:37;;;;;;;0.80;0.63;;;;;;;11.14;100.00;99541.06;5043327;28;20181;-64
2023/09/23 00:41:04;;;;;;;1.00;1.00;;;;;;;11.13;100.00;99544.56;5040542;28;20229;-65
2023/09/23 00:43:29;;;;;;;1.43;0.93;;;;;;;11.14;100.00;99551.38;5034425;28;20320;-65
2023/09/23 00:45:54;;;;;;;2.63;0.80;;;;;;;11.06;100.00;99548.47;5043547;28;20689;-66
2023/09/23 00:48:21;;;;;;;2.17;0.80;;;;;;;11.02;100.00;99556.50;5033503;28;20213;-66
2023/09/23 00:50:48;;;;;;;0.60;0.60;;;;;;;11.04;100.00;99552.06;5028029;28;20714;-65
2023/09/23 00:53:14;;;;;;;0.63;0.63;;;;;;;11.11;100.00;99548.16;5039660;28;20186;-65
2023/09/23 00:55:42;;;;;;;0.93;0.80;;;;;;;11.05;100.00;99559.72;5051704;28;20188;-65
2023/09/23 00:58:14;;;;;;;0.70;0.70;;;;;;;10.92;100.00;99558.84;5049637;28;20237;-65
2023/09/23 01:00:44;;;;;;;0.70;0.70;;;;;;;10.93;100.00;99563.06;5042347;28;20316;-66
2023/09/23 01:03:10;;;;;;;1.00;0.90;;;;;;;10.92;100.00;99557.09;5057886;28;20274;-65
2023/09/23 01:05:35;;;;;;;0.97;0.80;;;;;;;10.92;100.00;99558.84;5058989;28;20570;-64
2023/09/23 01:08:05;;;;;;;1.23;0.77;;;;;;;10.87;100.00;99564.28;5053132;28;20264;-65
2023/09/23 01:10:31;;;;;;;0.67;0.67;;;;;;;10.80;100.00;99557.88;5052381;28;20236;-64
2023/09/23 01:12:57;;;;;;;3.13;0.73;;;;;;;10.81;100.00;99560.34;5070857;28;20184;-64
2023/09/23 01:15:25;;;;;;;0.90;0.77;;;;;;;10.78;100.00;99563.13;5046783;28;20193;-67
2023/09/23 01:17:53;;;;;;;0.60;0.60;;;;;;;10.80;100.00;99558.72;5051840;28;20173;-65
2023/09/23 01:20:20;;;;;;;4.30;1.20;;;;;;;10.79;100.00;99558.78;5031767;28;20213;-65
2023/09/23 01:22:47;;;;;;;0.77;0.63;;;;;;;10.78;100.00;99558.00;5052455;28;20248;-65
2023/09/23 01:25:13;;;;;;;0.97;0.80;;;;;;;10.68;100.00;99556.94;5051388;28;20667;-65
2023/09/23 01:27:39;;;;;;;0.60;0.60;;;;;;;10.65;100.00;99559.69;5033812;28;20186;-64
2023/09/23 01:30:05;;;;;;;4.03;1.00;;;;;;;10.74;100.00;99553.97;5036403;28;20201;-64
2023/09/23 01:32:36;;;;;;;2.27;0.90;;;;;;;10.64;100.00;99552.88;5050673;28;20346;-64
2023/09/23 01:35:05;;;;;;;1.23;1.10;;;;;;;10.57;100.00;99555.03;5051589;28;20543;-64
2023/09/23 01:37:31;;;;;;;0.90;0.90;;;;;;;10.48;100.00;99560.75;5035695;28;20271;-64
2023/09/23 01:39:56;;;;;;;1.43;0.70;;;;;;;10.52;100.00;99563.94;5067783;28;20224;-65
2023/09/23 01:42:21;;;;;;;1.27;0.70;;;;;;;10.63;100.00;99574.38;5057426;28;20228;-65
2023/09/23 01:44:48;;;;;;;0.80;0.80;;;;;;;10.74;100.00;99578.84;5051880;28;20262;-64
2023/09/23 01:47:16;;;;;;;1.60;0.70;;;;;;;10.79;100.00;99580.22;5041014;28;20178;-65
2023/09/23 01:49:42;;;;;;;0.90;0.77;;;;;;;10.93;100.00;99575.94;5040838;28;20201;-64
2023/09/23 01:52:08;;;;;;;2.37;0.90;;;;;;;10.79;100.00;99580.22;5048735;28;20221;-63
2023/09/23 01:54:34;;;;;;;0.97;0.80;;;;;;;10.90;100.00;99578.69;5037772;28;20268;-63
2023/09/23 01:56:59;;;;;;;0.63;0.63;;;;;;;10.95;100.00;99585.22;5052579;28;20700;-64
2023/09/23 01:59:24;;;;;;;3.43;0.73;;;;;;;10.98;100.00;99595.28;5049276;28;20662;-64
2023/09/23 02:01:50;;;;;;;1.23;1.00;;;;;;;10.95;100.00;99598.09;5033767;28;20225;-64
2023/09/23 02:04:15;;;;;;;0.90;0.83;;;;;;;11.00;100.00;99595.19;5033362;28;20186;-64
2023/09/23 02:06:42;;;;;;;1.10;0.97;;;;;;;11.00;100.00;99602.09;5032411;28;20193;-64
2023/09/23 02:09:09;;;;;;;1.43;0.90;;;;;;;11.05;100.00;99594.91;5026210;28;20202;-64
2023/09/23 02:11:39;;;;;;;2.37;1.33;;;;;;;10.93;100.00;99596.53;5044800;28;20224;-63
2023/09/23 02:14:05;;;;;;;2.13;1.00;;;;;;;10.87;100.00;99602.06;5041205;28;20256;-63
2023/09/23 02:16:30;;;;;;;1.30;0.70;;;;;;;10.95;100.00;99607.53;5042007;28;20607;-64
2023/09/23 02:18:55;;;;;;;1.43;1.00;;;;;;;10.81;100.00;99600.69;5045833;28;20185;-64
2023/09/23 02:21:21;;;;;;;1.27;0.90;;;;;;;10.83;100.00;99604.00;5031619;28;20232;-64
2023/09/23 02:23:46;;;;;;;1.13;1.03;;;;;;;10.70;100.00;99608.28;5043184;28;20182;-63
2023/09/23 02:26:12;;;;;;;1.87;1.20;;;;;;;10.71;100.00;99620.22;5051202;28;20614;-64
2023/09/23 02:28:38;;;;;;;3.00;1.00;;;;;;;10.72;100.00;99625.25;5037504;28;20198;-64
2023/09/23 02:31:04;;;;;;;1.27;1.00;;;;;;;10.61;100.00;99620.78;5023843;28;20312;-64
2023/09/23 02:33:30;;;;;;;1.60;1.10;;;;;;;10.66;100.00;99631.59;5048561;28;20256;-64
2023/09/23 02:35:56;;;;;;;1.10;1.07;;;;;;;10.60;100.00;99626.84;5047320;28;20273;-64
2023/09/23 02:38:22;;;;;;;1.37;0.90;;;;;;;10.52;100.00;99631.66;5060521;28;20226;-63
2023/09/23 02:40:49;;;;;;;2.00;0.90;;;;;;;10.47;100.00;99631.13;5038411;28;20245;-63
2023/09/23 02:43:19;;;;;;;1.17;1.07;;;;;;;10.48;100.00;99636.16;5040614;28;20182;-64
2023/09/23 02:45:48;;;;;;;1.10;1.10;;;;;;;10.44;100.00;99634.69;5050610;28;20180;-64
2023/09/23 02:48:14;;;;;;;2.27;1.10;;;;;;;10.38;100.00;99642.78;5064359;28;20193;-64
2023/09/23 02:50:40;;;;;;;1.20;1.10;;;;;;;10.38;100.00;99644.53;5035782;28;20236;-64
2023/09/23 02:53:06;;;;;;;1.73;1.50;;;;;;;10.26;100.00;99636.59;5047635;28;20572;-64
2023/09/23 02:55:31;;;;;;;3.97;1.07;;;;;;;10.27;100.00;99645.13;5042043;28;20193;-64
2023/09/23 02:57:56;;;;;;;2.43;1.20;;;;;;;10.20;100.00;99639.56;5045644;28;20229;-64
2023/09/23 03:00:29;;;;;;;1.20;1.10;;;;;;;10.24;100.00;99656.44;5036433;28;20229;-63
2023/09/23 03:02:56;;;;;;;4.10;1.50;;;;;;;10.16;100.00;99656.91;5054357;28;20185;-66
2023/09/23 03:05:26;;;;;;;1.70;1.37;;;;;;;10.14;100.00;99661.28;5044272;28;20170;-63
2023/09/23 03:07:57;;;;;;;1.20;1.10;;;;;;;10.14;100.00;99666.44;5054239;28;20204;-64
2023/09/23 03:10:31;;;;;;;3.60;1.40;;;;;;;10.09;100.00;99677.91;5036530;28;20222;-63
2023/09/23 03:13:07;;;;;;;1.43;1.33;;;;;;;9.99;100.00;99681.03;5053363;28;20624;-64
2023/09/23 03:15:53;;;;;;;1.50;1.30;;;;;;;9.92;100.00;99686.63;5053398;28;20256;-63
2023/09/23 03:18:29;;;;;;;2.17;1.37;;;;;;;9.92;100.00;99686.63;5045797;28;20286;-64
2023/09/23 03:20:55;;;;;;;2.47;1.40;;;;;;;9.92;100.00;99695.13;5054307;28;20237;-64
2023/09/23 03:23:21;;;;;;;5.63;1.40;;;;;;;9.92;100.00;99704.59;5053118;28;20268;-64
2023/09/23 03:25:48;;;;;;;1.67;1.20;;;;;;;9.81;100.00;99708.63;5053716;28;20265;-64
2023/09/23 03:28:17;;;;;;;6.20;1.40;;;;;;;9.80;100.00;99708.72;5053143;28;20197;-64
2023/09/23 03:30:47;;;;;;;1.23;1.13;;;;;;;9.80;100.00;99711.28;5025017;28;20232;-63
2023/09/23 03:33:14;;;;;;;1.40;1.30;;;;;;;9.66;100.00;99709.50;5050487;28;20275;-64
2023/09/23 03:35:39;;;;;;;2.23;1.20;;;;;;;9.59;100.00;99714.16;5049754;28;20240;-64
2023/09/23 03:38:05;;;;;;;2.97;1.47;;;;;;;9.59;100.00;99719.28;5054310;28;20648;-66
2023/09/23 03:40:31;;;;;;;1.43;1.33;;;;;;;9.61;100.00;99724.34;5062438;28;20256;-64
2023/09/23 03:42:57;;;;;;;2.53;1.37;;;;;;;9.49;100.00;99723.31;5052393;28;20216;-64
2023/09/23 03:45:23;;;;;;;1.70;1.47;;;;;;;9.48;100.00;99727.59;5060336;28;20208;-64
2023/09/23 03:47:48;;;;;;;3.13;1.33;;;;;;;9.41;100.00;99736.53;5073826;28;20219;-66
2023/09/23 03:50:14;;;;;;;1.40;1.30;;;;;;;9.41;100.00;99735.72;5060465;28;20209;-64
2023/09/23 03:52:40;;;;;;;3.73;1.30;;;;;;;9.33;100.00;99729.28;5037197;28;20667;-65
2023/09/23 03:55:08;;;;;;;1.70;1.60;;;;;;;9.37;100.00;99738.44;5040025;28;20635;-64
2023/09/23 03:57:33;;;;;;;2.20;2.00;;;;;;;9.40;100.00;99739.19;5052435;28;20239;-64
2023/09/23 03:59:59;;;;;;;6.10;1.43;;;;;;;9.44;100.00;99744.09;5053987;28;20185;-64
2023/09/23 04:02:24;;;;;;;3.80;1.27;;;;;;;9.45;100.00;99745.75;5058755;28;20691;-64
2023/09/23 04:04:49;;;;;;;6.00;1.77;;;;;;;9.53;100.00;99742.75;5054054;28;20184;-64
2023/09/23 04:07:15;;;;;;;1.70;1.10;;;;;;;9.64;100.00;99748.09;5051565;28;20177;-66
2023/09/23 04:09:41;;;;;;;3.63;1.87;;;;;;;9.72;100.00;99751.97;5025772;28;20240;-64
2023/09/23 04:12:06;;;;;;;3.63;1.60;;;;;;;9.72;100.00;99752.81;5061855;28;20263;-64
2023/09/23 04:14:32;;;;;;;1.53;1.43;;;;;;;9.75;100.00;99751.78;5040217;28;20193;-64
2023/09/23 04:16:57;;;;;;;1.50;1.40;;;;;;;9.73;100.00;99758.78;5039948;28;20196;-64
2023/09/23 04:19:23;;;;;;;3.97;2.00;;;;;;;9.83;100.00;99757.34;5052768;28;20189;-64
2023/09/23 04:21:48;;;;;;;2.03;1.60;;;;;;;9.84;100.00;99753.84;5032846;28;20246;-63
2023/09/23 04:24:13;;;;;;;4.13;1.60;;;;;;;9.96;100.00;99757.44;5029563;28;20298;-63
2023/09/23 04:26:39;;;;;;;1.93;1.40;;;;;;;10.03;100.00;99756.19;5038738;28;20189;-64
2023/09/23 04:29:04;;;;;;;2.77;1.80;;;;;;;10.01;100.00;99753.72;5025848;28;20212;-64
2023/09/23 04:31:30;;;;;;;3.30;2.20;;;;;;;10.10;100.00;99754.91;5041827;28;20251;-63
2023/09/23 04:33:55;;;;;;;3.00;1.40;;;;;;;10.07;100.00;99754.28;5037329;28;20178;-64
2023/09/23 04:36:21;;;;;;;5.77;1.80;;;;;;;10.17;100.00;99758.78;5033957;28;20670;-64
2023/09/23 04:38:49;;;;;;;1.63;1.53;;;;;;;10.21;100.00;99758.59;5028832;28;20182;-64
2023/09/23 04:41:15;;;;;;;2.77;1.60;;;;;;;10.26;100.00;99752.28;5028606;28;20303;-65
2023/09/23 04:43:42;;;;;;;2.80;1.60;;;;;;;10.26;100.00;99761.75;5051309;28;20177;-64
2023/09/23 04:46:08;;;;;;;1.83;1.70;;;;;;;10.13;100.00;99765.03;5039417;28;20186;-63
2023/09/23 04:48:33;;;;;;;3.23;1.30;;;;;;;10.12;100.00;99770.25;5051584;28;20237;-63
2023/09/23 04:50:59;;;;;;;2.00;1.50;;;;;;;10.04;100.00;99772.44;5037749;28;20229;-63
2023/09/23 04:53:24;;;;;;;2.00;1.80;;;;;;;9.90;100.00;99771.50;5046946;28;20182;-63
2023/09/23 04:55:50;;;;;;;2.23;1.90;;;;;;;9.96;100.00;99778.00;5040147;28;20554;-64
2023/09/23 04:58:15;;;;;;;1.90;1.70;;;;;;;9.91;100.00;99785.16;5051143;28;20213;-64
2023/09/23 05:00:40;;;;;;;6.93;1.90;;;;;;;9.89;100.00;99780.09;5035745;28;20232;-64
2023/09/23 05:03:08;;;;;;;3.87;2.00;;;;;;;9.91;100.00;99787.72;5043197;28;20209;-64
2023/09/23 05:05:34;;;;;;;4.50;2.10;;;;;;;10.00;100.00;99784.66;5041307;28;20178;-64
2023/09/23 05:08:00;;;;;;;2.10;1.90;;;;;;;10.01;100.00;99797.41;5050455;28;20312;-63
2023/09/23 05:10:26;;;;;;;2.80;2.00;;;;;;;10.12;100.00;99803.66;5033278;28;20375;-64
2023/09/23 05:12:56;;;;;;;4.33;2.23;;;;;;;10.17;100.00;99802.50;5044656;28;20204;-64
2023/09/23 05:15:24;;;;;;;3.57;2.10;;;;;;;10.15;100.00;99796.59;5031757;28;20629;-65
2023/09/23 05:17:49;;;;;;;3.37;1.70;;;;;;;10.22;100.00;99798.81;5031294;28;20206;-64
2023/09/23 05:20:22;;;;;;;4.30;1.80;;;;;;;10.33;100.00;99809.31;5037151;28;20604;-65
2023/09/23 05:22:48;;;;;;;3.63;1.87;;;;;;;10.39;100.00;99814.13;5039914;28;20224;-64
2023/09/23 05:25:14;;;;;;;2.53;1.60;;;;;;;10.38;100.00;99814.22;5064647;28;20195;-64
2023/09/23 05:27:39;;;;;;;1.60;1.50;;;;;;;10.45;100.00;99812.94;5071964;28;20636;-64
2023/09/23 05:30:12;;;;;;;5.00;1.90;;;;;;;10.49;100.00;99825.53;5047382;28;20292;-65
2023/09/23 05:32:38;;;;;;;2.33;1.90;;;;;;;10.62;100.00;99835.91;5050448;28;20538;-64
2023/09/23 05:35:10;;;;;;;2.63;1.80;;;;;;;10.57;100.00;99837.94;5051478;28;20177;-64
2023/09/23 05:37:47;;;;;;;2.80;1.90;;;;;;;10.57;100.00;99840.50;5049116;28;20704;-64
2023/09/23 05:40:36;;;;;;;2.13;1.93;;;;;;;10.60;100.00;99842.88;5039848;28;20207;-64
2023/09/23 05:42:59;;;;;;;3.20;1.80;;;;;;;10.39;100.00;99849.28;5041778;28;20198;-64
2023/09/23 05:45:24;;;;;;;5.37;2.20;;;;;;;10.46;100.00;99855.75;5032172;28;20193;-64
2023/09/23 05:47:53;;;;;;;2.37;1.97;;;;;;;10.56;100.00;99858.63;5032166;28;20197;-65
2023/09/23 05:50:19;;;;;;;6.23;1.87;;;;;;;10.61;100.00;99859.97;5025377;28;20244;-64
2023/09/23 05:52:47;;;;;;;3.97;2.00;;;;;;;10.70;100.00;99868.09;5044649;28;20620;-64
2023/09/23 05:55:14;;;;;;;6.67;2.20;;;;;;;10.66;100.00;99865.69;5031055;28;20269;-63
2023/09/23 05:57:40;;;;;;;4.40;2.10;;;;;;;10.61;100.00;99872.03;5028491;28;20193;-63
2023/09/23 06:00:10;;;;;;;2.40;1.90;;;;;;;10.56;100.00;99871.47;5023452;28;20312;-64
2023/09/23 06:02:36;;;;;;;2.77;1.70;;;;;;;10.64;100.00;99874.41;5060094;28;20182;-64
2023/09/23 06:05:02;;;;;;;4.03;2.07;;;;;;;10.73;100.00;99879.03;5050924;28;20184;-64
2023/09/23 06:07:28;;;;;;;2.20;2.00;;;;;;;10.81;100.00;99876.00;5050933;28;20545;-64
2023/09/23 06:09:54;;;;;;;2.33;1.87;;;;;;;11.05;100.00;99876.28;5050183;28;20213;-64
2023/09/23 06:12:20;;;;;;;2.60;1.93;;;;;;;11.17;100.00;99879.03;5042726;28;20221;-64
2023/09/23 06:14:45;;;;;;;4.27;2.43;;;;;;;11.23;100.00;99884.63;5052219;28;20177;-65
2023/09/23 06:17:11;;;;;;;3.87;2.27;;;;;;;11.39;100.00;99889.69;5051673;28;20177;-65
2023/09/23 06:19:36;;;;;;;2.27;2.07;;;;;;;11.46;100.00;99896.13;5050656;28;20173;-64
2023/09/23 06:22:01;;;;;;;5.17;2.30;;;;;;;11.71;100.00;99904.91;5041427;28;20704;-64
2023/09/23 06:24:26;;;;;;;3.13;2.17;;;;;;;12.19;100.00;99898.50;5038914;28;20196;-65
2023/09/23 06:26:52;;;;;;;3.93;2.43;;;;;;;12.75;100.00;99903.44;5051288;28;20181;-64
2023/09/23 06:29:17;;;;;;;2.70;2.50;;;;;;;13.69;100.00;99898.78;5051716;28;20660;-64
2023/09/23 06:31:42;;;;;;;4.50;2.07;;;;;;;14.43;100.00;99895.25;5027839;28;20762;-64
2023/09/23 06:34:07;;;;;;;3.50;1.83;;;;;;;15.86;100.00;99895.63;5021678;28;20185;-64
2023/09/23 06:36:33;;;;;;;2.70;2.03;;;;;;;16.09;100.00;99909.34;5020431;28;20178;-64
2023/09/23 06:38:59;;;;;;;4.03;1.80;;;;;;;17.31;100.00;99916.63;5033268;28;20625;-63
2023/09/23 06:41:24;;;;;;;1.87;1.50;;;;;;;18.01;100.00;99921.84;5035820;28;20706;-66
2023/09/23 06:43:51;;;;;;;2.40;1.83;;;;;;;19.15;100.00;99918.50;5042701;28;20209;-64
2023/09/23 06:46:16;;;;;;;1.87;1.40;;;;;;;19.79;95.32;99924.59;5037029;28;20269;-64
2023/09/23 06:48:42;;;;;;;2.07;1.53;;;;;;;19.74;94.67;99926.84;5038616;28;20301;-64
2023/09/23 06:51:08;;;;;;;2.87;1.70;;;;;;;19.89;96.81;99926.38;5028527;28;20213;-65
2023/09/23 06:53:33;;;;;;;3.07;1.40;;;;;;;20.15;90.54;99934.25;5037626;28;20192;-65
2023/09/23 06:55:59;;;;;;;2.33;1.53;;;;;;;19.92;93.45;99941.72;5038125;28;20598;-65
2023/09/23 06:58:24;;;;;;;3.73;1.40;;;;;;;21.41;85.07;99944.38;5033837;28;20175;-65
2023/09/23 07:00:49;;;;;;;2.70;1.47;;;;;;;21.25;78.22;99952.97;5035829;28;20232;-65
2023/09/23 07:03:15;;;;;;;2.87;1.63;;;;;;;20.91;82.26;99945.97;5067065;28;20699;-64
2023/09/23 07:05:42;;;;;;;2.43;1.40;;;;;;;21.41;78.05;99957.47;5057433;28;20694;-66
2023/09/23 07:08:07;;;;;;;2.43;1.50;;;;;;;21.19;78.27;99950.97;5056833;28;20546;-65
2023/09/23 07:10:37;;;;;;;2.05;1.65;;;;;;;22.08;73.22;99963.72;5045164;28;20217;-65
2023/09/23 07:13:04;;;;;;;5.00;1.38;;;;;;;22.47;71.08;99960.47;5023976;28;20170;-66
2023/09/23 07:15:30;;;;;;;2.08;1.63;;;;;;;22.36;73.54;99960.75;5037279;28;20629;-65
2023/09/23 07:17:56;;;;;;;2.38;1.60;;;;;;;21.36;76.93;99971.97;5056799;28;20165;-66
2023/09/23 07:20:21;;;;;;;1.50;1.40;;;;;;;20.74;84.52;99972.94;5049179;28;20258;-65
2023/09/23 07:22:47;;;;;;;3.87;1.77;;;;;;;18.80;97.48;99980.72;5050196;28;20533;-65
2023/09/23 07:25:12;;;;;;;5.13;1.73;;;;;;;19.06;100.00;99979.34;5051154;28;20177;-65
2023/09/23 07:27:37;;;;;;;2.77;1.60;;;;;;;20.06;93.82;99997.84;5057976;28;20189;-66
2023/09/23 07:30:03;;;;;;;2.70;1.80;;;;;;;20.40;92.27;99994.56;5065878;28;20200;-66
2023/09/23 07:32:29;;;;;;;5.77;1.70;;;;;;;19.88;91.14;99997.81;5018767;28;20225;-64
2023/09/23 07:34:54;;;;;;;3.27;1.37;;;;;;;20.44;89.48;99991.50;5058646;28;20628;-65
2023/09/23 07:37:19;;;;;;;2.63;1.40;;;;;;;20.36;90.45;99993.22;5063943;28;20189;-65
2023/09/23 07:39:44;;;;;;;2.57;1.40;;;;;;;20.98;86.10;99990.59;5057024;28;20193;-64
2023/09/23 07:42:10;;;;;;;4.80;1.40;;;;;;;21.21;81.38;100003.97;5043266;28;20235;-64
2023/09/23 07:44:35;;;;;;;2.15;1.33;;;;;;;22.11;77.32;100005.28;5035523;28;20672;-67
2023/09/23 07:47:00;;;;;;;2.38;1.63;;;;;;;22.54;71.07;100002.56;5041094;28;20212;-65
2023/09/23 07:49:25;;;;;;;3.35;1.30;;;;;;;22.64;71.29;100005.84;5054606;28;20208;-65
2023/09/23 07:51:53;;;;;;;4.03;2.00;;;;;;;21.17;83.09;100009.66;5062242;28;20667;-65
2023/09/23 07:54:18;;;;;;;3.08;1.55;;;;;;;20.61;87.74;100008.09;5073034;28;20193;-64
2023/09/23 07:56:44;;;;;;;2.80;1.85;;;;;;;19.91;92.84;100021.00;5035045;28;20186;-65
2023/09/23 07:59:09;;;;;;;2.90;1.70;;;;;;;19.82;93.82;100020.88;5034521;28;20182;-65
2023/09/23 08:01:34;;;;;;;3.37;1.83;;;;;;;19.19;97.50;100032.00;5025991;28;20732;-64
2023/09/23 08:04:00;;;;;;;4.07;2.03;;;;;;;17.73;100.00;100033.50;5058959;28;20258;-64
2023/09/23 08:06:25;;;;;;;4.57;2.17;;;;;;;17.73;100.00;100030.91;5050628;28;20197;-64
2023/09/23 08:08:50;;;;;;;2.20;1.63;;;;;;;18.02;100.00;100027.59;5053202;28;20675;-64
2023/09/23 08:11:16;;;;;;;3.47;1.80;;;;;;;17.62;100.00;100028.41;5053003;28;20220;-71
2023/09/23 08:13:41;;;;;;;2.37;1.83;;;;;;;16.25;100.00;100036.09;5071897;28;20181;-73
2023/09/23 08:16:06;;;;;;;5.17;1.77;;;;;;;16.18;100.00;100038.31;5072598;28;20658;-73
2023/09/23 08:18:32;;;;;;;2.40;1.63;;;;;;;16.45;100.00;100052.66;5052945;28;20189;-71
2023/09/23 08:20:59;;;;;;;5.10;1.63;;;;;;;16.09;100.00;100057.22;5050712;28;20251;-77
2023/09/23 08:23:24;;;;;;;2.63;1.70;;;;;;;16.31;100.00;100064.16;5069996;28;20177;-71
2023/09/23 08:25:49;;;;;;;5.30;2.13;;;;;;;16.71;100.00;100060.94;5070920;28;20267;-82
2023/09/23 08:28:15;;;;;;;3.57;1.70;;;;;;;16.99;100.00;100053.50;5060337;28;20547;-80
2023/09/23 08:30:43;;;;;;;2.70;1.87;;;;;;;16.90;100.00;100059.44;5051462;28;20337;-80
2023/09/23 08:33:09;;;;;;;5.67;1.60;;;;;;;16.60;100.00;100055.78;5058227;28;20185;-75
2023/09/23 08:35:35;;;;;;;2.00;1.33;;;;;;;16.17;100.00;100064.41;5053396;28;20178;-81
2023/09/23 08:38:00;;;;;;;2.57;1.30;;;;;;;16.09;100.00;100060.63;5047105;28;20232;-72
2023/09/23 08:40:28;;;;;;;4.17;1.40;;;;;;;15.98;100.00;100061.47;5052982;28;20224;-76
2023/09/23 08:42:59;;;;;;;1.87;1.33;;;;;;;15.88;100.00;100065.72;5050564;28;20547;-72
2023/09/23 08:45:27;;;;;;;3.87;1.67;;;;;;;16.16;100.00;100060.16;5053665;28;20183;-78
2023/09/23 08:47:53;;;;;;;2.27;1.33;;;;;;;16.64;100.00;100052.00;5061063;28;20177;-74
2023/09/23 08:50:21;;;;;;;3.63;1.40;;;;;;;17.35;100.00;100051.41;5044780;28;20198;-76
2023/09/23 08:52:46;;;;;;;4.47;1.53;;;;;;;18.45;100.00;100049.84;5051521;28;20185;-76
2023/09/23 08:55:16;;;;;;;2.57;1.37;;;;;;;19.67;95.62;100064.06;5054499;28;20234;-81
2023/09/23 08:57:41;;;;;;;3.23;1.40;;;;;;;20.21;88.58;100066.84;5056941;28;20654;-77
2023/09/23 09:00:08;;;;;;;3.77;1.70;;;;;;;20.67;82.65;100073.81;5044048;28;20174;-84
2023/09/23 09:02:34;;;;;;;1.87;1.10;;;;;;;21.11;78.55;100071.25;5065470;28;20577;-81
2023/09/23 09:04:59;;;;;;;3.73;1.17;;;;;;;21.31;76.13;100078.88;5052689;28;20173;-78
2023/09/23 09:07:32;;;;;;;3.20;1.30;;;;;;;23.08;64.02;100077.25;5057134;28;20724;-82
2023/09/23 09:09:57;;;;;;;4.10;1.40;;;;;;;22.88;67.90;100091.53;5050279;28;20201;-82
2023/09/23 09:12:23;;;;;;;1.83;1.13;;;;;;;23.33;59.35;100092.00;5039309;28;20218;-77
2023/09/23 09:14:50;;;;;;;1.35;1.00;;;;;;;23.39;57.23;100092.31;5033144;28;20207;-73
2023/09/23 09:17:16;;;;;;;1.83;1.23;;;;;;;23.08;59.91;100098.25;5047174;28;20196;-75
2023/09/23 09:19:41;;;;;;;2.13;1.05;;;;;;;24.95;54.13;100096.75;5031771;28;20197;-76
2023/09/23 09:22:07;;;;;;;3.03;1.30;;;;;;;24.46;53.62;100108.47;5035950;28;20240;-76
2023/09/23 09:24:33;;;;;;;3.55;1.23;;;;;;;25.44;48.70;100111.28;5023820;28;20182;-70
2023/09/23 09:26:58;;;;;;;3.83;1.42;;;;;;;26.38;45.07;100104.56;5045466;28;20189;-67
2023/09/23 09:29:24;;;;;;;1.98;0.95;;;;;;;24.75;48.79;100106.16;5039566;28;20197;-69
2023/09/23 09:31:51;;;;;;;1.92;0.85;;;;;;;22.82;57.03;100121.03;5029512;28;20233;-73
2023/09/23 09:34:23;;;;;;;3.90;1.08;;;;;;;21.68;71.45;100115.28;5016367;28;20552;-74
2023/09/23 09:36:54;;;;;;;2.90;1.60;;;;;;;20.75;81.54;100113.97;5018442;28;20190;-76
2023/09/23 09:39:25;;;;;;;2.65;0.93;;;;;;;19.63;92.22;100104.47;5021812;28;20214;-76
2023/09/23 09:41:53;;;;;;;3.47;1.20;;;;;;;19.39;93.54;100113.59;5008348;28;20788;-76
2023/09/23 09:44:22;;;;;;;2.43;1.13;;;;;;;19.09;97.83;100112.81;5023177;28;20214;-76
2023/09/23 09:46:48;;;;;;;4.87;1.20;;;;;;;18.73;96.51;100104.72;5035586;28;20576;-79
2023/09/23 09:49:16;;;;;;;2.67;1.43;;;;;;;18.76;99.05;100109.63;5033641;28;20206;-79
2023/09/23 09:51:46;;;;;;;3.53;1.37;;;;;;;18.86;100.00;100113.06;5043547;28;20269;-74
2023/09/23 09:54:12;;;;;;;2.83;1.37;;;;;;;18.18;100.00;100118.19;5054259;28;20185;-74
2023/09/23 09:56:42;;;;;;;5.03;1.37;;;;;;;18.22;100.00;100122.16;5062775;28;20184;-73
2023/09/23 09:59:07;;;;;;;1.77;1.33;;;;;;;18.63;99.03;100119.50;5045301;28;20181;-72
2023/09/23 10:01:34;;;;;;;3.00;0.93;;;;;;;18.14;100.00;100112.41;5045175;28;20225;-69
2023/09/23 10:03:59;;;;;;;1.53;1.20;;;;;;;18.51;100.00;100109.22;5054947;28;20184;-67
2023/09/23 10:06:26;;;;;;;2.10;1.20;;;;;;;18.61;99.58;100113.63;5056339;28;20180;-68
2023/09/23 10:08:53;;;;;;;3.13;1.00;;;;;;;18.52;99.93;100117.88;5051643;28;20239;-68
2023/09/23 10:11:29;;;;;;;3.63;1.20;;;;;;;18.37;99.99;100107.00;5054838;28;20230;-68
2023/09/23 10:13:55;;;;;;;2.87;1.20;;;;;;;18.82;99.28;100111.69;5050433;28;20177;-71
2023/09/23 10:16:27;;;;;;;3.57;1.27;;;;;;;18.65;98.49;100113.19;5058128;28;20184;-77
2023/09/23 10:18:54;;;;;;;1.47;1.30;;;;;;;18.33;100.00;100103.84;5063166;28;20235;-75
2023/09/23 10:21:23;;;;;;;3.73;1.30;;;;;;;18.71;99.40;100101.41;5046170;28;20229;-73
2023/09/23 10:23:51;;;;;;;3.47;1.20;;;;;;;18.87;97.33;100104.28;5050167;28;20264;-68
2023/09/23 10:26:23;;;;;;;2.57;1.03;;;;;;;19.10;96.24;100108.44;5051644;28;20189;-69
2023/09/23 10:29:03;;;;;;;1.87;1.33;;;;;;;18.72;96.04;100105.66;5051532;28;20202;-68
2023/09/23 10:31:31;;;;;;;2.27;1.30;;;;;;;18.98;96.17;100099.94;5032870;28;20232;-76
2023/09/23 10:33:57;;;;;;;4.00;1.10;;;;;;;19.29;94.82;100110.19;5051893;28;21154;-74
2023/09/23 10:36:23;;;;;;;3.93;1.60;;;;;;;19.64;97.43;100100.91;5054439;28;20209;-75
2023/09/23 10:38:49;;;;;;;2.00;1.10;;;;;;;19.47;95.43;100097.25;5044160;28;20608;-78
2023/09/23 10:41:15;;;;;;;2.13;1.37;;;;;;;19.84;90.58;100099.88;5036412;28;20731;-73
2023/09/23 10:43:40;;;;;;;4.37;1.50;;;;;;;19.01;94.61;100102.25;5045465;28;20193;-73
2023/09/23 10:46:06;;;;;;;2.67;1.23;;;;;;;19.08;95.48;100102.53;5056044;28;20177;-71
2023/09/23 10:48:32;;;;;;;2.77;1.03;;;;;;;19.39;96.30;100099.72;5051596;28;20255;-72
2023/09/23 10:51:00;;;;;;;2.40;1.00;;;;;;;19.59;91.75;100101.31;5040468;28;20234;-68
2023/09/23 10:53:29;;;;;;;3.67;1.43;;;;;;;19.71;94.15;100101.97;5055107;28;20193;-68
2023/09/23 10:55:56;;;;;;;2.87;1.57;;;;;;;19.90;95.62;100108.94;5050683;28;20182;-70
2023/09/23 10:58:21;;;;;;;2.60;1.37;;;;;;;20.43;88.81;100104.78;5051153;28;20211;-69
2023/09/23 11:00:48;;;;;;;1.53;1.10;;;;;;;20.59;91.53;100106.75;5039058;28;20233;-81
2023/09/23 11:03:18;;;;;;;3.33;1.63;;;;;;;20.79;89.61;100112.66;5047516;28;20188;-66
2023/09/23 11:05:44;;;;;;;2.80;1.30;;;;;;;21.15;82.29;100103.13;5058020;28;20177;-65
2023/09/23 11:08:11;;;;;;;2.87;1.20;;;;;;;20.51;80.35;100105.84;5051234;28;20178;-65
2023/09/23 11:10:38;;;;;;;2.33;1.30;;;;;;;19.97;87.74;100102.16;5041545;28;20298;-66
2023/09/23 11:13:05;;;;;;;1.70;1.10;;;;;;;20.08;82.67;100106.38;5045016;28;20263;-65
2023/09/23 11:15:30;;;;;;;3.40;1.13;;;;;;;19.87;78.83;100108.38;5056614;28;20239;-65
2023/09/23 11:17:56;;;;;;;2.87;1.30;;;;;;;19.77;85.42;100111.84;5058750;28;20169;-66
2023/09/23 11:20:32;;;;;;;1.90;1.17;;;;;;;19.86;82.57;100109.34;5061594;28;20206;-66
2023/09/23 11:23:02;;;;;;;2.90;1.30;;;;;;;19.64;87.58;100109.53;5049422;28;20224;-65
2023/09/23 11:25:27;;;;;;;2.53;1.47;;;;;;;19.79;85.62;100109.91;5069511;28;20204;-65